sensor_id;sensor_type;location;lat;lon;timestamp;P1;durP1;ratioP1;P2;durP2;ratioP2
31760;SDS011;18335;51.486;7.562;2022-11-04T00:01:17;2.97;;;1.40;;
31760;SDS011;18335;51.486;7.562;2022-11-04T00:03:44;4.10;;;1.42;;
31760;SDS011;18335;51.486;7.562;2022-11-04T00:06:12;3.90;;;1.52;;
31760;SDS011;18335;51.486;7.562;2022-11-04T00:08:39;3.22;;;1.33;;
31760;SDS011;18335;51.486;7.562;2022-11-04T00:11:06;2.97;;;1.10;;
31760;SDS011;18335;51.486;7.562;2022-11-04T00:13:50;5.00;;;1.30;;
31760;SDS011;18335;51.486;7.562;2022-11-04T00:16:17;2.63;;;1.10;;
31760;SDS011;18335;51.486;7.562;2022-11-04T00:19:01;3.47;;;1.38;;
31760;SDS011;18335;51.486;7.562;2022-11-04T00:21:29;3.72;;;1.23;;
31760;SDS011;18335;51.486;7.562;2022-11-04T00:24:14;1.92;;;0.95;;
31760;SDS011;18335;51.486;7.562;2022-11-04T00:27:13;3.67;;;1.13;;
31760;SDS011;18335;51.486;7.562;2022-11-04T00:29:59;3.88;;;1.23;;
31760;SDS011;18335;51.486;7.562;2022-11-04T00:32:26;3.40;;;1.52;;
31760;SDS011;18335;51.486;7.562;2022-11-04T00:35:11;1.15;;;0.50;;
31760;SDS011;18335;51.486;7.562;2022-11-04T00:37:40;1.67;;;1.00;;
31760;SDS011;18335;51.486;7.562;2022-11-04T00:40:09;4.85;;;1.08;;
31760;SDS011;18335;51.486;7.562;2022-11-04T00:42:37;2.92;;;0.88;;
31760;SDS011;18335;51.486;7.562;2022-11-04T00:45:05;2.28;;;1.05;;
31760;SDS011;18335;51.486;7.562;2022-11-04T00:47:32;2.70;;;1.05;;
31760;SDS011;18335;51.486;7.562;2022-11-04T00:49:59;2.90;;;1.10;;
31760;SDS011;18335;51.486;7.562;2022-11-04T00:52:26;1.80;;;1.10;;
31760;SDS011;18335;51.486;7.562;2022-11-04T00:54:54;2.53;;;1.23;;
31760;SDS011;18335;51.486;7.562;2022-11-04T00:57:20;5.20;;;1.30;;
31760;SDS011;18335;51.486;7.562;2022-11-04T00:59:47;5.80;;;1.20;;
31760;SDS011;18335;51.486;7.562;2022-11-04T01:02:13;1.50;;;0.77;;
31760;SDS011;18335;51.486;7.562;2022-11-04T01:04:40;5.47;;;1.30;;
31760;SDS011;18335;51.486;7.562;2022-11-04T01:07:07;5.40;;;1.30;;
31760;SDS011;18335;51.486;7.562;2022-11-04T01:09:34;2.90;;;1.20;;
31760;SDS011;18335;51.486;7.562;2022-11-04T01:12:02;3.85;;;1.35;;
31760;SDS011;18335;51.486;7.562;2022-11-04T01:14:29;4.25;;;1.50;;
31760;SDS011;18335;51.486;7.562;2022-11-04T01:16:55;4.13;;;1.30;;
31760;SDS011;18335;51.486;7.562;2022-11-04T01:19:22;3.60;;;1.50;;
31760;SDS011;18335;51.486;7.562;2022-11-04T01:21:49;3.67;;;1.65;;
31760;SDS011;18335;51.486;7.562;2022-11-04T01:24:17;4.85;;;1.70;;
31760;SDS011;18335;51.486;7.562;2022-11-04T01:26:44;4.28;;;1.80;;
31760;SDS011;18335;51.486;7.562;2022-11-04T01:29:12;3.80;;;1.50;;
31760;SDS011;18335;51.486;7.562;2022-11-04T01:31:39;4.28;;;1.50;;
31760;SDS011;18335;51.486;7.562;2022-11-04T01:34:06;3.38;;;1.65;;
31760;SDS011;18335;51.486;7.562;2022-11-04T01:36:32;4.05;;;1.65;;
31760;SDS011;18335;51.486;7.562;2022-11-04T01:38:59;4.60;;;1.65;;
31760;SDS011;18335;51.486;7.562;2022-11-04T01:41:27;4.20;;;2.42;;
31760;SDS011;18335;51.486;7.562;2022-11-04T01:43:55;4.70;;;1.40;;
31760;SDS011;18335;51.486;7.562;2022-11-04T01:46:30;5.35;;;1.80;;
31760;SDS011;18335;51.486;7.562;2022-11-04T01:49:03;5.90;;;1.80;;
31760;SDS011;18335;51.486;7.562;2022-11-04T01:51:40;5.28;;;2.05;;
31760;SDS011;18335;51.486;7.562;2022-11-04T01:54:08;3.92;;;1.95;;
31760;SDS011;18335;51.486;7.562;2022-11-04T01:56:36;7.13;;;1.70;;
31760;SDS011;18335;51.486;7.562;2022-11-04T01:59:06;6.35;;;1.98;;
31760;SDS011;18335;51.486;7.562;2022-11-04T02:01:40;5.20;;;2.38;;
31760;SDS011;18335;51.486;7.562;2022-11-04T02:04:08;6.43;;;1.85;;
31760;SDS011;18335;51.486;7.562;2022-11-04T02:06:52;6.35;;;1.73;;
31760;SDS011;18335;51.486;7.562;2022-11-04T02:09:21;4.72;;;2.10;;
31760;SDS011;18335;51.486;7.562;2022-11-04T02:11:49;5.20;;;1.70;;
31760;SDS011;18335;51.486;7.562;2022-11-04T02:14:33;6.43;;;2.30;;
31760;SDS011;18335;51.486;7.562;2022-11-04T02:17:05;6.57;;;2.20;;
31760;SDS011;18335;51.486;7.562;2022-11-04T02:19:54;5.40;;;2.55;;
31760;SDS011;18335;51.486;7.562;2022-11-04T02:22:42;6.07;;;2.28;;
31760;SDS011;18335;51.486;7.562;2022-11-04T02:29:06;7.95;;;2.30;;
31760;SDS011;18335;51.486;7.562;2022-11-04T02:31:43;5.00;;;2.70;;
31760;SDS011;18335;51.486;7.562;2022-11-04T02:34:18;5.93;;;2.50;;
31760;SDS011;18335;51.486;7.562;2022-11-04T02:36:55;8.35;;;2.40;;
31760;SDS011;18335;51.486;7.562;2022-11-04T02:39:30;5.78;;;2.88;;
31760;SDS011;18335;51.486;7.562;2022-11-04T02:42:06;4.88;;;2.30;;
31760;SDS011;18335;51.486;7.562;2022-11-04T02:44:42;8.88;;;3.00;;
31760;SDS011;18335;51.486;7.562;2022-11-04T02:47:15;7.07;;;2.60;;
31760;SDS011;18335;51.486;7.562;2022-11-04T02:49:46;8.57;;;2.50;;
31760;SDS011;18335;51.486;7.562;2022-11-04T02:52:18;5.03;;;2.22;;
31760;SDS011;18335;51.486;7.562;2022-11-04T02:54:52;5.65;;;2.50;;
31760;SDS011;18335;51.486;7.562;2022-11-04T02:57:24;9.43;;;2.75;;
31760;SDS011;18335;51.486;7.562;2022-11-04T02:59:58;8.48;;;2.85;;
31760;SDS011;18335;51.486;7.562;2022-11-04T03:02:29;10.48;;;2.88;;
31760;SDS011;18335;51.486;7.562;2022-11-04T03:05:00;8.50;;;2.40;;
31760;SDS011;18335;51.486;7.562;2022-11-04T03:07:29;9.07;;;2.28;;
31760;SDS011;18335;51.486;7.562;2022-11-04T03:09:59;15.90;;;2.50;;
31760;SDS011;18335;51.486;7.562;2022-11-04T03:12:28;5.63;;;2.08;;
31760;SDS011;18335;51.486;7.562;2022-11-04T03:15:02;7.60;;;2.80;;
31760;SDS011;18335;51.486;7.562;2022-11-04T03:17:35;9.27;;;2.78;;
31760;SDS011;18335;51.486;7.562;2022-11-04T03:20:08;6.20;;;2.35;;
31760;SDS011;18335;51.486;7.562;2022-11-04T03:22:42;12.57;;;3.50;;
31760;SDS011;18335;51.486;7.562;2022-11-04T03:25:09;8.68;;;2.50;;
31760;SDS011;18335;51.486;7.562;2022-11-04T03:27:38;8.95;;;2.92;;
31760;SDS011;18335;51.486;7.562;2022-11-04T03:30:12;8.65;;;3.53;;
31760;SDS011;18335;51.486;7.562;2022-11-04T03:32:42;10.40;;;3.25;;
31760;SDS011;18335;51.486;7.562;2022-11-04T03:35:17;14.57;;;4.28;;
31760;SDS011;18335;51.486;7.562;2022-11-04T03:37:45;8.13;;;3.13;;
31760;SDS011;18335;51.486;7.562;2022-11-04T03:40:13;7.68;;;2.92;;
31760;SDS011;18335;51.486;7.562;2022-11-04T03:42:42;8.90;;;2.40;;
31760;SDS011;18335;51.486;7.562;2022-11-04T03:45:13;11.43;;;2.85;;
31760;SDS011;18335;51.486;7.562;2022-11-04T03:47:39;11.63;;;3.67;;
31760;SDS011;18335;51.486;7.562;2022-11-04T03:50:08;9.52;;;3.17;;
31760;SDS011;18335;51.486;7.562;2022-11-04T03:52:38;6.30;;;2.90;;
31760;SDS011;18335;51.486;7.562;2022-11-04T03:55:06;9.50;;;3.40;;
31760;SDS011;18335;51.486;7.562;2022-11-04T03:57:38;8.05;;;3.25;;
31760;SDS011;18335;51.486;7.562;2022-11-04T04:00:14;7.05;;;2.20;;
31760;SDS011;18335;51.486;7.562;2022-11-04T04:02:46;13.00;;;2.80;;
31760;SDS011;18335;51.486;7.562;2022-11-04T04:05:21;9.30;;;3.95;;
31760;SDS011;18335;51.486;7.562;2022-11-04T04:07:54;8.73;;;2.72;;
31760;SDS011;18335;51.486;7.562;2022-11-04T04:10:29;7.63;;;2.33;;
31760;SDS011;18335;51.486;7.562;2022-11-04T04:15:37;7.38;;;2.70;;
31760;SDS011;18335;51.486;7.562;2022-11-04T04:18:10;5.40;;;2.28;;
31760;SDS011;18335;51.486;7.562;2022-11-04T04:20:40;7.05;;;2.95;;
31760;SDS011;18335;51.486;7.562;2022-11-04T04:23:12;6.53;;;3.28;;
31760;SDS011;18335;51.486;7.562;2022-11-04T04:26:00;10.60;;;2.20;;
31760;SDS011;18335;51.486;7.562;2022-11-04T04:28:47;7.63;;;2.45;;
31760;SDS011;18335;51.486;7.562;2022-11-04T04:31:18;8.40;;;2.55;;
31760;SDS011;18335;51.486;7.562;2022-11-04T04:34:00;11.32;;;2.40;;
31760;SDS011;18335;51.486;7.562;2022-11-04T04:36:27;6.60;;;1.70;;
31760;SDS011;18335;51.486;7.562;2022-11-04T04:38:56;6.70;;;2.10;;
31760;SDS011;18335;51.486;7.562;2022-11-04T04:41:45;7.68;;;2.00;;
31760;SDS011;18335;51.486;7.562;2022-11-04T04:44:31;5.78;;;1.75;;
31760;SDS011;18335;51.486;7.562;2022-11-04T04:47:18;6.65;;;2.17;;
31760;SDS011;18335;51.486;7.562;2022-11-04T04:49:48;5.88;;;1.60;;
31760;SDS011;18335;51.486;7.562;2022-11-04T04:52:15;13.07;;;2.08;;
31760;SDS011;18335;51.486;7.562;2022-11-04T04:54:42;7.30;;;2.10;;
31760;SDS011;18335;51.486;7.562;2022-11-04T04:57:09;12.65;;;1.70;;
31760;SDS011;18335;51.486;7.562;2022-11-04T04:59:36;6.68;;;1.65;;
31760;SDS011;18335;51.486;7.562;2022-11-04T05:02:02;10.27;;;1.95;;
31760;SDS011;18335;51.486;7.562;2022-11-04T05:04:30;21.27;;;8.48;;
31760;SDS011;18335;51.486;7.562;2022-11-04T05:06:57;11.73;;;1.95;;
31760;SDS011;18335;51.486;7.562;2022-11-04T05:09:24;7.68;;;1.60;;
31760;SDS011;18335;51.486;7.562;2022-11-04T05:11:50;12.98;;;2.05;;
31760;SDS011;18335;51.486;7.562;2022-11-04T05:14:17;12.18;;;1.85;;
31760;SDS011;18335;51.486;7.562;2022-11-04T05:16:44;7.07;;;1.73;;
31760;SDS011;18335;51.486;7.562;2022-11-04T05:19:10;13.55;;;1.88;;
31760;SDS011;18335;51.486;7.562;2022-11-04T05:21:38;12.43;;;1.52;;
31760;SDS011;18335;51.486;7.562;2022-11-04T05:24:05;11.95;;;1.92;;
31760;SDS011;18335;51.486;7.562;2022-11-04T05:26:32;6.97;;;1.77;;
31760;SDS011;18335;51.486;7.562;2022-11-04T05:28:59;9.43;;;1.70;;
31760;SDS011;18335;51.486;7.562;2022-11-04T05:31:25;6.03;;;1.85;;
31760;SDS011;18335;51.486;7.562;2022-11-04T05:33:54;11.65;;;1.90;;
31760;SDS011;18335;51.486;7.562;2022-11-04T05:36:21;12.25;;;1.83;;
31760;SDS011;18335;51.486;7.562;2022-11-04T05:38:50;11.27;;;2.25;;
31760;SDS011;18335;51.486;7.562;2022-11-04T05:41:17;8.32;;;1.60;;
31760;SDS011;18335;51.486;7.562;2022-11-04T05:43:50;19.52;;;3.95;;
31760;SDS011;18335;51.486;7.562;2022-11-04T05:46:17;9.80;;;1.92;;
31760;SDS011;18335;51.486;7.562;2022-11-04T05:48:43;9.40;;;2.05;;
31760;SDS011;18335;51.486;7.562;2022-11-04T05:51:11;10.18;;;1.90;;
31760;SDS011;18335;51.486;7.562;2022-11-04T05:53:39;7.60;;;2.10;;
31760;SDS011;18335;51.486;7.562;2022-11-04T05:56:07;15.65;;;2.58;;
31760;SDS011;18335;51.486;7.562;2022-11-04T05:58:34;6.10;;;1.58;;
31760;SDS011;18335;51.486;7.562;2022-11-04T06:01:11;10.75;;;2.38;;
31760;SDS011;18335;51.486;7.562;2022-11-04T06:03:39;7.53;;;1.73;;
31760;SDS011;18335;51.486;7.562;2022-11-04T06:06:06;8.77;;;2.42;;
31760;SDS011;18335;51.486;7.562;2022-11-04T06:08:32;6.35;;;1.67;;
31760;SDS011;18335;51.486;7.562;2022-11-04T06:10:59;7.22;;;1.50;;
31760;SDS011;18335;51.486;7.562;2022-11-04T06:13:27;8.80;;;1.80;;
31760;SDS011;18335;51.486;7.562;2022-11-04T06:15:54;8.73;;;1.77;;
31760;SDS011;18335;51.486;7.562;2022-11-04T06:18:20;6.88;;;1.85;;
31760;SDS011;18335;51.486;7.562;2022-11-04T06:20:47;8.05;;;1.42;;
31760;SDS011;18335;51.486;7.562;2022-11-04T06:23:13;8.50;;;1.83;;
31760;SDS011;18335;51.486;7.562;2022-11-04T06:25:40;7.80;;;1.50;;
31760;SDS011;18335;51.486;7.562;2022-11-04T06:28:07;10.80;;;1.92;;
31760;SDS011;18335;51.486;7.562;2022-11-04T06:30:34;12.20;;;1.55;;
31760;SDS011;18335;51.486;7.562;2022-11-04T06:33:01;7.10;;;1.80;;
31760;SDS011;18335;51.486;7.562;2022-11-04T06:35:28;8.10;;;1.90;;
31760;SDS011;18335;51.486;7.562;2022-11-04T06:37:54;7.93;;;3.90;;
31760;SDS011;18335;51.486;7.562;2022-11-04T06:40:21;22.30;;;12.23;;
31760;SDS011;18335;51.486;7.562;2022-11-04T06:42:48;10.30;;;3.90;;
31760;SDS011;18335;51.486;7.562;2022-11-04T06:45:15;12.85;;;3.83;;
31760;SDS011;18335;51.486;7.562;2022-11-04T06:47:43;12.55;;;4.97;;
31760;SDS011;18335;51.486;7.562;2022-11-04T06:50:09;12.98;;;5.10;;
31760;SDS011;18335;51.486;7.562;2022-11-04T06:52:38;21.00;;;4.47;;
31760;SDS011;18335;51.486;7.562;2022-11-04T06:55:06;13.98;;;2.92;;
31760;SDS011;18335;51.486;7.562;2022-11-04T06:57:33;10.40;;;2.15;;
31760;SDS011;18335;51.486;7.562;2022-11-04T07:00:00;9.55;;;1.92;;
31760;SDS011;18335;51.486;7.562;2022-11-04T07:02:27;12.45;;;2.13;;
31760;SDS011;18335;51.486;7.562;2022-11-04T07:04:55;7.57;;;1.70;;
31760;SDS011;18335;51.486;7.562;2022-11-04T07:07:22;5.55;;;1.70;;
31760;SDS011;18335;51.486;7.562;2022-11-04T07:09:48;10.57;;;2.40;;
31760;SDS011;18335;51.486;7.562;2022-11-04T07:12:15;9.77;;;2.42;;
31760;SDS011;18335;51.486;7.562;2022-11-04T07:14:42;7.65;;;1.70;;
31760;SDS011;18335;51.486;7.562;2022-11-04T07:17:08;8.10;;;1.60;;
31760;SDS011;18335;51.486;7.562;2022-11-04T07:19:35;8.75;;;2.03;;
31760;SDS011;18335;51.486;7.562;2022-11-04T07:22:03;5.93;;;1.75;;
31760;SDS011;18335;51.486;7.562;2022-11-04T07:24:30;5.10;;;1.55;;
31760;SDS011;18335;51.486;7.562;2022-11-04T07:26:57;14.20;;;2.35;;
31760;SDS011;18335;51.486;7.562;2022-11-04T07:29:24;7.85;;;2.15;;
31760;SDS011;18335;51.486;7.562;2022-11-04T07:31:50;9.63;;;2.20;;
31760;SDS011;18335;51.486;7.562;2022-11-04T07:34:18;9.52;;;2.15;;
31760;SDS011;18335;51.486;7.562;2022-11-04T07:36:45;8.23;;;2.00;;
31760;SDS011;18335;51.486;7.562;2022-11-04T07:39:13;6.47;;;2.50;;
31760;SDS011;18335;51.486;7.562;2022-11-04T07:41:40;6.60;;;1.88;;
31760;SDS011;18335;51.486;7.562;2022-11-04T07:44:09;8.80;;;1.60;;
31760;SDS011;18335;51.486;7.562;2022-11-04T07:46:36;7.50;;;2.92;;
31760;SDS011;18335;51.486;7.562;2022-11-04T07:49:03;7.97;;;2.00;;
31760;SDS011;18335;51.486;7.562;2022-11-04T07:51:30;7.43;;;1.70;;
31760;SDS011;18335;51.486;7.562;2022-11-04T07:53:57;5.38;;;1.25;;
31760;SDS011;18335;51.486;7.562;2022-11-04T07:56:25;6.63;;;1.30;;
31760;SDS011;18335;51.486;7.562;2022-11-04T07:58:52;6.20;;;1.50;;
31760;SDS011;18335;51.486;7.562;2022-11-04T08:01:20;8.30;;;1.55;;
31760;SDS011;18335;51.486;7.562;2022-11-04T08:03:48;10.15;;;2.80;;
31760;SDS011;18335;51.486;7.562;2022-11-04T08:06:15;9.77;;;2.03;;
31760;SDS011;18335;51.486;7.562;2022-11-04T08:08:43;7.13;;;1.50;;
31760;SDS011;18335;51.486;7.562;2022-11-04T08:11:11;13.13;;;2.72;;
31760;SDS011;18335;51.486;7.562;2022-11-04T08:13:41;10.13;;;1.80;;
31760;SDS011;18335;51.486;7.562;2022-11-04T08:16:09;4.72;;;1.48;;
31760;SDS011;18335;51.486;7.562;2022-11-04T08:18:38;7.60;;;1.42;;
31760;SDS011;18335;51.486;7.562;2022-11-04T08:21:06;7.00;;;1.50;;
31760;SDS011;18335;51.486;7.562;2022-11-04T08:23:32;9.25;;;1.38;;
31760;SDS011;18335;51.486;7.562;2022-11-04T08:25:59;9.35;;;1.55;;
31760;SDS011;18335;51.486;7.562;2022-11-04T08:28:26;9.93;;;2.42;;
31760;SDS011;18335;51.486;7.562;2022-11-04T08:30:55;7.10;;;1.25;;
31760;SDS011;18335;51.486;7.562;2022-11-04T08:33:25;11.90;;;1.60;;
31760;SDS011;18335;51.486;7.562;2022-11-04T08:35:52;9.00;;;1.38;;
31760;SDS011;18335;51.486;7.562;2022-11-04T08:38:21;6.65;;;2.00;;
31760;SDS011;18335;51.486;7.562;2022-11-04T08:40:48;4.70;;;1.30;;
31760;SDS011;18335;51.486;7.562;2022-11-04T08:43:15;7.93;;;1.50;;
31760;SDS011;18335;51.486;7.562;2022-11-04T08:45:42;6.45;;;1.80;;
31760;SDS011;18335;51.486;7.562;2022-11-04T08:48:11;7.35;;;1.63;;
31760;SDS011;18335;51.486;7.562;2022-11-04T08:50:39;7.85;;;1.88;;
31760;SDS011;18335;51.486;7.562;2022-11-04T08:53:06;8.38;;;1.63;;
31760;SDS011;18335;51.486;7.562;2022-11-04T08:55:33;7.72;;;1.60;;
31760;SDS011;18335;51.486;7.562;2022-11-04T08:58:01;13.10;;;2.08;;
31760;SDS011;18335;51.486;7.562;2022-11-04T09:00:27;5.90;;;2.10;;
31760;SDS011;18335;51.486;7.562;2022-11-04T09:02:54;8.10;;;1.70;;
31760;SDS011;18335;51.486;7.562;2022-11-04T09:05:22;9.05;;;1.90;;
31760;SDS011;18335;51.486;7.562;2022-11-04T09:07:49;10.07;;;2.20;;
31760;SDS011;18335;51.486;7.562;2022-11-04T09:10:16;13.68;;;2.25;;
31760;SDS011;18335;51.486;7.562;2022-11-04T09:12:43;10.20;;;1.67;;
31760;SDS011;18335;51.486;7.562;2022-11-04T09:15:10;8.30;;;1.55;;
31760;SDS011;18335;51.486;7.562;2022-11-04T09:17:37;5.90;;;2.13;;
31760;SDS011;18335;51.486;7.562;2022-11-04T09:20:04;8.82;;;1.52;;
31760;SDS011;18335;51.486;7.562;2022-11-04T09:22:33;11.82;;;2.03;;
31760;SDS011;18335;51.486;7.562;2022-11-04T09:25:00;9.13;;;1.35;;
31760;SDS011;18335;51.486;7.562;2022-11-04T09:27:27;10.07;;;1.67;;
31760;SDS011;18335;51.486;7.562;2022-11-04T09:29:54;6.82;;;1.80;;
31760;SDS011;18335;51.486;7.562;2022-11-04T09:32:21;11.55;;;2.03;;
31760;SDS011;18335;51.486;7.562;2022-11-04T09:34:48;10.15;;;1.60;;
31760;SDS011;18335;51.486;7.562;2022-11-04T09:37:14;6.68;;;1.60;;
31760;SDS011;18335;51.486;7.562;2022-11-04T09:39:42;10.13;;;1.80;;
31760;SDS011;18335;51.486;7.562;2022-11-04T09:42:16;10.90;;;1.95;;
31760;SDS011;18335;51.486;7.562;2022-11-04T09:44:55;6.38;;;1.85;;
31760;SDS011;18335;51.486;7.562;2022-11-04T09:47:26;10.70;;;1.60;;
31760;SDS011;18335;51.486;7.562;2022-11-04T09:49:57;10.77;;;2.38;;
31760;SDS011;18335;51.486;7.562;2022-11-04T09:52:27;7.43;;;1.60;;
31760;SDS011;18335;51.486;7.562;2022-11-04T09:54:59;8.02;;;1.90;;
31760;SDS011;18335;51.486;7.562;2022-11-04T09:57:30;7.68;;;1.30;;
31760;SDS011;18335;51.486;7.562;2022-11-04T09:59:58;10.10;;;1.70;;
31760;SDS011;18335;51.486;7.562;2022-11-04T10:02:31;9.15;;;1.67;;
31760;SDS011;18335;51.486;7.562;2022-11-04T10:05:10;7.38;;;1.60;;
31760;SDS011;18335;51.486;7.562;2022-11-04T10:07:51;6.60;;;1.33;;
31760;SDS011;18335;51.486;7.562;2022-11-04T10:10:33;12.18;;;2.85;;
31760;SDS011;18335;51.486;7.562;2022-11-04T10:13:13;14.65;;;2.33;;
31760;SDS011;18335;51.486;7.562;2022-11-04T10:15:57;10.52;;;2.15;;
31760;SDS011;18335;51.486;7.562;2022-11-04T10:18:44;6.07;;;1.50;;
31760;SDS011;18335;51.486;7.562;2022-11-04T10:21:20;6.85;;;1.25;;
31760;SDS011;18335;51.486;7.562;2022-11-04T10:24:00;5.28;;;1.33;;
31760;SDS011;18335;51.486;7.562;2022-11-04T10:26:36;8.35;;;1.75;;
31760;SDS011;18335;51.486;7.562;2022-11-04T10:29:11;9.23;;;2.58;;
31760;SDS011;18335;51.486;7.562;2022-11-04T10:31:42;9.93;;;1.70;;
31760;SDS011;18335;51.486;7.562;2022-11-04T10:34:14;15.43;;;3.55;;
31760;SDS011;18335;51.486;7.562;2022-11-04T10:36:47;8.85;;;3.55;;
31760;SDS011;18335;51.486;7.562;2022-11-04T10:39:15;10.88;;;2.92;;
31760;SDS011;18335;51.486;7.562;2022-11-04T10:41:49;9.23;;;1.98;;
31760;SDS011;18335;51.486;7.562;2022-11-04T10:44:19;6.28;;;1.40;;
31760;SDS011;18335;51.486;7.562;2022-11-04T10:46:50;8.90;;;1.70;;
31760;SDS011;18335;51.486;7.562;2022-11-04T10:49:33;8.82;;;2.25;;
31760;SDS011;18335;51.486;7.562;2022-11-04T10:52:20;9.90;;;1.27;;
31760;SDS011;18335;51.486;7.562;2022-11-04T10:54:47;9.75;;;1.27;;
31760;SDS011;18335;51.486;7.562;2022-11-04T10:57:17;9.60;;;1.92;;
31760;SDS011;18335;51.486;7.562;2022-11-04T10:59:48;10.18;;;1.70;;
31760;SDS011;18335;51.486;7.562;2022-11-04T11:02:18;9.60;;;1.90;;
31760;SDS011;18335;51.486;7.562;2022-11-04T11:05:18;6.13;;;1.40;;
31760;SDS011;18335;51.486;7.562;2022-11-04T11:07:49;6.50;;;1.35;;
31760;SDS011;18335;51.486;7.562;2022-11-04T11:10:18;11.57;;;1.60;;
31760;SDS011;18335;51.486;7.562;2022-11-04T11:12:52;6.63;;;1.13;;
31760;SDS011;18335;51.486;7.562;2022-11-04T11:15:28;7.85;;;1.95;;
31760;SDS011;18335;51.486;7.562;2022-11-04T11:20:36;8.80;;;1.38;;
31760;SDS011;18335;51.486;7.562;2022-11-04T11:23:05;6.70;;;2.33;;
31760;SDS011;18335;51.486;7.562;2022-11-04T11:26:00;5.43;;;1.20;;
31760;SDS011;18335;51.486;7.562;2022-11-04T11:28:28;10.30;;;1.88;;
31760;SDS011;18335;51.486;7.562;2022-11-04T11:31:02;8.35;;;1.30;;
31760;SDS011;18335;51.486;7.562;2022-11-04T11:33:33;12.25;;;1.63;;
31760;SDS011;18335;51.486;7.562;2022-11-04T11:36:03;7.55;;;1.40;;
31760;SDS011;18335;51.486;7.562;2022-11-04T11:38:37;6.75;;;1.73;;
31760;SDS011;18335;51.486;7.562;2022-11-04T11:41:16;6.28;;;1.23;;
31760;SDS011;18335;51.486;7.562;2022-11-04T11:43:49;5.28;;;1.05;;
31760;SDS011;18335;51.486;7.562;2022-11-04T11:46:20;5.95;;;1.50;;
31760;SDS011;18335;51.486;7.562;2022-11-04T11:48:49;5.35;;;1.08;;
31760;SDS011;18335;51.486;7.562;2022-11-04T11:51:21;9.75;;;1.73;;
31760;SDS011;18335;51.486;7.562;2022-11-04T11:53:59;9.57;;;1.67;;
31760;SDS011;18335;51.486;7.562;2022-11-04T11:56:40;4.93;;;1.23;;
31760;SDS011;18335;51.486;7.562;2022-11-04T11:59:12;8.38;;;1.77;;
31760;SDS011;18335;51.486;7.562;2022-11-04T12:01:46;9.30;;;1.90;;
31760;SDS011;18335;51.486;7.562;2022-11-04T12:04:17;9.23;;;1.88;;
31760;SDS011;18335;51.486;7.562;2022-11-04T12:06:46;10.23;;;1.63;;
31760;SDS011;18335;51.486;7.562;2022-11-04T12:09:25;9.25;;;1.52;;
31760;SDS011;18335;51.486;7.562;2022-11-04T12:12:06;6.75;;;1.40;;
31760;SDS011;18335;51.486;7.562;2022-11-04T12:14:46;8.93;;;1.48;;
31760;SDS011;18335;51.486;7.562;2022-11-04T12:17:27;7.20;;;1.52;;
31760;SDS011;18335;51.486;7.562;2022-11-04T12:20:05;9.52;;;1.50;;
31760;SDS011;18335;51.486;7.562;2022-11-04T12:22:53;8.23;;;1.42;;
31760;SDS011;18335;51.486;7.562;2022-11-04T12:25:29;4.93;;;1.30;;
31760;SDS011;18335;51.486;7.562;2022-11-04T12:28:07;11.40;;;1.75;;
31760;SDS011;18335;51.486;7.562;2022-11-04T12:30:50;7.38;;;1.23;;
31760;SDS011;18335;51.486;7.562;2022-11-04T12:36:07;13.27;;;3.65;;
31760;SDS011;18335;51.486;7.562;2022-11-04T12:38:52;7.38;;;1.58;;
31760;SDS011;18335;51.486;7.562;2022-11-04T12:41:34;9.52;;;1.55;;
31760;SDS011;18335;51.486;7.562;2022-11-04T12:46:43;10.85;;;1.50;;
31760;SDS011;18335;51.486;7.562;2022-11-04T12:49:26;11.50;;;1.90;;
31760;SDS011;18335;51.486;7.562;2022-11-04T12:52:05;13.37;;;2.30;;
31760;SDS011;18335;51.486;7.562;2022-11-04T12:54:47;6.47;;;2.35;;
31760;SDS011;18335;51.486;7.562;2022-11-04T12:57:31;8.10;;;1.42;;
31760;SDS011;18335;51.486;7.562;2022-11-04T13:00:08;8.65;;;2.20;;
31760;SDS011;18335;51.486;7.562;2022-11-04T13:02:39;7.22;;;1.80;;
31760;SDS011;18335;51.486;7.562;2022-11-04T13:05:17;9.65;;;1.50;;
31760;SDS011;18335;51.486;7.562;2022-11-04T13:07:53;7.82;;;1.23;;
31760;SDS011;18335;51.486;7.562;2022-11-04T13:10:31;12.35;;;2.95;;
31760;SDS011;18335;51.486;7.562;2022-11-04T13:13:06;7.40;;;1.48;;
31760;SDS011;18335;51.486;7.562;2022-11-04T13:15:38;9.30;;;2.33;;
31760;SDS011;18335;51.486;7.562;2022-11-04T13:18:11;7.40;;;1.50;;
31760;SDS011;18335;51.486;7.562;2022-11-04T13:20:42;7.55;;;1.67;;
31760;SDS011;18335;51.486;7.562;2022-11-04T13:23:14;8.20;;;1.40;;
31760;SDS011;18335;51.486;7.562;2022-11-04T13:25:45;7.85;;;1.95;;
31760;SDS011;18335;51.486;7.562;2022-11-04T13:28:15;9.00;;;2.17;;
31760;SDS011;18335;51.486;7.562;2022-11-04T13:30:46;9.70;;;2.03;;
31760;SDS011;18335;51.486;7.562;2022-11-04T13:33:20;5.60;;;1.40;;
31760;SDS011;18335;51.486;7.562;2022-11-04T13:35:54;6.75;;;1.20;;
31760;SDS011;18335;51.486;7.562;2022-11-04T13:38:27;7.25;;;1.75;;
31760;SDS011;18335;51.486;7.562;2022-11-04T13:44:10;8.73;;;1.95;;
31760;SDS011;18335;51.486;7.562;2022-11-04T13:46:39;11.63;;;1.67;;
31760;SDS011;18335;51.486;7.562;2022-11-04T13:49:16;6.45;;;1.77;;
31760;SDS011;18335;51.486;7.562;2022-11-04T13:51:59;6.57;;;1.27;;
31760;SDS011;18335;51.486;7.562;2022-11-04T13:54:28;11.30;;;2.75;;
31760;SDS011;18335;51.486;7.562;2022-11-04T13:57:04;7.15;;;1.55;;
31760;SDS011;18335;51.486;7.562;2022-11-04T13:59:35;4.90;;;1.30;;
31760;SDS011;18335;51.486;7.562;2022-11-04T14:08:12;9.13;;;1.90;;
31760;SDS011;18335;51.486;7.562;2022-11-04T14:10:44;8.90;;;2.72;;
31760;SDS011;18335;51.486;7.562;2022-11-04T14:13:40;8.45;;;2.55;;
31760;SDS011;18335;51.486;7.562;2022-11-04T14:16:10;13.25;;;3.42;;
31760;SDS011;18335;51.486;7.562;2022-11-04T14:18:40;15.18;;;4.20;;
31760;SDS011;18335;51.486;7.562;2022-11-04T14:21:09;10.73;;;3.40;;
31760;SDS011;18335;51.486;7.562;2022-11-04T14:23:38;14.10;;;3.40;;
31760;SDS011;18335;51.486;7.562;2022-11-04T14:26:08;13.82;;;3.80;;
31760;SDS011;18335;51.486;7.562;2022-11-04T14:28:37;14.68;;;4.00;;
31760;SDS011;18335;51.486;7.562;2022-11-04T14:31:07;11.45;;;3.20;;
31760;SDS011;18335;51.486;7.562;2022-11-04T14:33:37;11.48;;;3.60;;
31760;SDS011;18335;51.486;7.562;2022-11-04T14:39:03;11.73;;;4.00;;
31760;SDS011;18335;51.486;7.562;2022-11-04T14:44:18;15.40;;;4.25;;
31760;SDS011;18335;51.486;7.562;2022-11-04T14:46:50;18.10;;;4.43;;
31760;SDS011;18335;51.486;7.562;2022-11-04T14:49:35;16.50;;;4.03;;
31760;SDS011;18335;51.486;7.562;2022-11-04T14:52:04;17.05;;;4.65;;
31760;SDS011;18335;51.486;7.562;2022-11-04T14:54:32;16.25;;;4.60;;
31760;SDS011;18335;51.486;7.562;2022-11-04T14:57:06;14.18;;;4.32;;
31760;SDS011;18335;51.486;7.562;2022-11-04T14:59:39;15.32;;;5.28;;
31760;SDS011;18335;51.486;7.562;2022-11-04T15:02:09;18.80;;;5.07;;
31760;SDS011;18335;51.486;7.562;2022-11-04T15:04:47;13.60;;;3.70;;
31760;SDS011;18335;51.486;7.562;2022-11-04T15:07:24;14.13;;;4.75;;
31760;SDS011;18335;51.486;7.562;2022-11-04T15:09:58;14.68;;;4.70;;
31760;SDS011;18335;51.486;7.562;2022-11-04T15:12:26;16.00;;;4.57;;
31760;SDS011;18335;51.486;7.562;2022-11-04T15:15:30;15.35;;;3.85;;
31760;SDS011;18335;51.486;7.562;2022-11-04T15:18:01;14.52;;;5.55;;
31760;SDS011;18335;51.486;7.562;2022-11-04T15:20:34;15.43;;;4.70;;
31760;SDS011;18335;51.486;7.562;2022-11-04T15:23:03;11.60;;;3.80;;
31760;SDS011;18335;51.486;7.562;2022-11-04T15:25:33;11.70;;;4.20;;
31760;SDS011;18335;51.486;7.562;2022-11-04T15:28:00;12.38;;;3.53;;
31760;SDS011;18335;51.486;7.562;2022-11-04T15:30:28;11.02;;;4.03;;
31760;SDS011;18335;51.486;7.562;2022-11-04T15:32:57;13.55;;;4.05;;
31760;SDS011;18335;51.486;7.562;2022-11-04T15:35:25;14.32;;;4.65;;
31760;SDS011;18335;51.486;7.562;2022-11-04T15:37:56;12.60;;;4.40;;